createdAt,value
2024-03-16T00:00:48.929Z,10.94
2024-03-16T00:03:15.738Z,10.92
2024-03-16T00:05:43.204Z,10.94
2024-03-16T00:08:09.972Z,10.89
2024-03-16T00:10:36.934Z,10.97
2024-03-16T00:13:04.030Z,10.92
2024-03-16T00:15:30.874Z,10.96
2024-03-16T00:17:57.704Z,10.96
2024-03-16T00:20:27.007Z,10.97
2024-03-16T00:22:53.823Z,10.99
2024-03-16T00:25:20.796Z,11.05
2024-03-16T00:27:47.616Z,10.97
2024-03-16T00:30:15.412Z,11.09
2024-03-16T00:32:42.296Z,11.07
2024-03-16T00:35:09.222Z,11.12
2024-03-16T00:37:36.066Z,11.13
2024-03-16T00:40:03.102Z,11.13
2024-03-16T00:42:30.010Z,11.22
2024-03-16T00:44:56.756Z,11.23
2024-03-16T00:47:23.519Z,11.20
2024-03-16T00:49:50.421Z,11.24
2024-03-16T00:52:17.218Z,11.15
2024-03-16T00:54:44.185Z,11.19
2024-03-16T00:57:11.069Z,11.20
2024-03-16T00:59:37.896Z,11.25
2024-03-16T01:02:05.336Z,11.23
2024-03-16T01:04:34.983Z,11.35
2024-03-16T01:07:01.984Z,11.35
2024-03-16T01:09:28.916Z,11.41
2024-03-16T01:11:55.931Z,11.36
2024-03-16T01:14:22.700Z,11.39
2024-03-16T01:16:49.601Z,11.34
2024-03-16T01:19:16.547Z,11.35
2024-03-16T01:21:43.762Z,11.42
2024-03-16T01:24:10.769Z,11.41
2024-03-16T01:26:37.589Z,11.34
2024-03-16T01:29:05.401Z,11.41
2024-03-16T01:31:32.265Z,11.32
2024-03-16T01:33:59.292Z,11.33
2024-03-16T01:36:26.327Z,11.35
2024-03-16T01:38:53.273Z,11.31
2024-03-16T01:41:23.367Z,11.20
2024-03-16T01:43:50.180Z,11.27
2024-03-16T01:46:17.559Z,11.30
2024-03-16T01:48:44.496Z,11.38
2024-03-16T01:51:11.430Z,11.37
2024-03-16T01:53:39.409Z,11.34
2024-03-16T01:56:06.525Z,11.32
2024-03-16T01:58:42.492Z,11.35
2024-03-16T02:01:09.449Z,11.29
2024-03-16T02:03:36.430Z,11.29
2024-03-16T02:06:03.358Z,11.36
2024-03-16T02:08:30.607Z,11.41
2024-03-16T02:10:57.462Z,11.36
2024-03-16T02:13:24.450Z,11.31
2024-03-16T02:15:51.332Z,11.32
2024-03-16T02:18:18.147Z,11.37
2024-03-16T02:20:44.912Z,11.28
2024-03-16T02:23:11.699Z,11.25
2024-03-16T02:25:38.493Z,11.28
2024-03-16T02:28:05.962Z,11.22
2024-03-16T02:30:32.907Z,11.14
2024-03-16T02:32:59.958Z,11.14
2024-03-16T02:35:26.979Z,11.06
2024-03-16T02:37:53.772Z,11.23
2024-03-16T02:40:20.605Z,11.13
2024-03-16T02:42:47.684Z,11.22
2024-03-16T02:45:14.507Z,11.17
2024-03-16T02:47:41.309Z,11.03
2024-03-16T02:50:11.277Z,11.07
2024-03-16T02:52:39.203Z,11.17
2024-03-16T02:55:06.710Z,11.17
2024-03-16T02:57:33.600Z,11.09
2024-03-16T03:00:00.594Z,11.06
2024-03-16T03:02:29.193Z,10.98
2024-03-16T03:04:56.007Z,11.05
2024-03-16T03:07:22.818Z,11.00
2024-03-16T03:09:49.643Z,11.10
2024-03-16T03:12:16.676Z,10.96
2024-03-16T03:14:43.430Z,11.08
2024-03-16T03:17:10.266Z,11.08
2024-03-16T03:19:37.121Z,11.09
2024-03-16T03:22:03.916Z,11.12
2024-03-16T03:24:30.742Z,11.14
2024-03-16T03:26:57.530Z,11.16
2024-03-16T03:29:24.378Z,11.06
2024-03-16T03:31:51.088Z,10.82
2024-03-16T03:34:17.946Z,10.89
2024-03-16T03:36:45.804Z,11.07
2024-03-16T03:39:15.535Z,11.11
2024-03-16T03:41:42.498Z,11.15
2024-03-16T03:44:22.100Z,11.08
2024-03-16T03:46:52.903Z,11.16
2024-03-16T03:49:40.840Z,11.02
2024-03-16T03:52:07.737Z,11.08
2024-03-16T03:54:35.905Z,11.06
2024-03-16T03:57:03.736Z,11.11
2024-03-16T03:59:30.692Z,11.24
2024-03-16T04:01:57.640Z,11.21
2024-03-16T04:04:24.464Z,11.25
2024-03-16T04:06:51.281Z,11.12
2024-03-16T04:09:18.194Z,11.15
2024-03-16T04:11:44.937Z,10.99
2024-03-16T04:14:11.743Z,11.06
2024-03-16T04:16:38.551Z,11.19
2024-03-16T04:19:05.323Z,11.13
2024-03-16T04:21:32.274Z,11.11
2024-03-16T04:23:59.180Z,11.08
2024-03-16T04:26:26.419Z,10.99
2024-03-16T04:28:53.531Z,11.08
2024-03-16T04:31:20.348Z,11.02
2024-03-16T04:33:47.213Z,10.96
2024-03-16T04:36:15.044Z,10.99
2024-03-16T04:38:42.011Z,10.95
2024-03-16T04:41:08.951Z,10.92
2024-03-16T04:43:35.935Z,10.87
2024-03-16T04:46:02.846Z,11.05
2024-03-16T04:48:29.769Z,10.76
2024-03-16T04:50:57.269Z,10.83
2024-03-16T04:53:24.212Z,10.80
2024-03-16T04:55:53.692Z,10.75
2024-03-16T04:58:20.738Z,10.85
2024-03-16T05:00:47.749Z,10.82
2024-03-16T05:03:14.663Z,10.83
2024-03-16T05:05:41.444Z,10.86
2024-03-16T05:08:11.007Z,10.85
2024-03-16T05:10:37.817Z,10.84
2024-03-16T05:13:04.730Z,10.72
2024-03-16T05:15:31.709Z,10.83
2024-03-16T05:17:59.235Z,10.72
2024-03-16T05:20:26.242Z,10.81
2024-03-16T05:22:53.833Z,10.72
2024-03-16T05:25:20.866Z,10.83
2024-03-16T05:27:48.125Z,10.94
2024-03-16T05:30:16.530Z,10.76
2024-03-16T05:32:44.138Z,10.74
2024-03-16T05:35:11.722Z,10.67
2024-03-16T05:37:38.790Z,10.85
2024-03-16T05:40:05.940Z,10.81
2024-03-16T05:42:38.508Z,10.85
2024-03-16T05:45:06.568Z,10.83
2024-03-16T05:47:33.362Z,10.45
2024-03-16T05:50:00.953Z,10.57
2024-03-16T05:52:27.738Z,10.58
2024-03-16T05:54:54.668Z,10.62
2024-03-16T05:57:21.926Z,10.70
2024-03-16T05:59:52.908Z,10.67
2024-03-16T06:02:20.128Z,10.67
2024-03-16T06:04:46.950Z,10.78
2024-03-16T06:07:13.751Z,10.86
2024-03-16T06:09:40.678Z,10.81
2024-03-16T06:12:07.553Z,10.72
2024-03-16T06:14:37.447Z,10.70
2024-03-16T06:17:04.300Z,10.82
2024-03-16T06:19:31.182Z,10.89
2024-03-16T06:21:58.049Z,10.98
2024-03-16T06:24:24.888Z,10.99
2024-03-16T06:27:01.697Z,10.93
2024-03-16T06:29:32.313Z,11.09
2024-03-16T06:32:06.849Z,10.89
2024-03-16T06:34:37.301Z,10.97
2024-03-16T06:37:05.351Z,11.02
2024-03-16T06:39:32.374Z,10.90
2024-03-16T06:41:59.209Z,11.01
2024-03-16T06:44:25.941Z,11.20
2024-03-16T06:46:52.917Z,11.17
2024-03-16T06:49:19.813Z,11.27
2024-03-16T06:51:46.726Z,11.27
2024-03-16T06:54:16.671Z,11.15
2024-03-16T06:56:43.499Z,11.31
2024-03-16T06:59:10.389Z,11.28
2024-03-16T07:01:37.235Z,11.25
2024-03-16T07:04:04.176Z,11.27
2024-03-16T07:06:31.164Z,11.29
2024-03-16T07:09:01.285Z,11.46
2024-03-16T07:11:28.174Z,11.47
2024-03-16T07:13:55.299Z,11.51
2024-03-16T07:16:22.587Z,11.53
2024-03-16T07:18:49.603Z,11.38
2024-03-16T07:21:17.053Z,11.45
2024-03-16T07:23:45.223Z,11.42
2024-03-16T07:26:12.158Z,11.45
2024-03-16T07:28:39.581Z,11.41
2024-03-16T07:31:06.476Z,11.17
2024-03-16T07:33:33.370Z,11.35
2024-03-16T07:36:00.201Z,11.45
2024-03-16T07:38:27.455Z,11.41
2024-03-16T07:40:54.434Z,11.39
2024-03-16T07:43:21.540Z,11.33
2024-03-16T07:45:51.891Z,11.46
2024-03-16T07:48:18.805Z,11.38
2024-03-16T07:50:45.654Z,11.32
2024-03-16T07:53:12.594Z,11.48
2024-03-16T07:55:39.655Z,11.36
2024-03-16T07:58:06.623Z,11.27
2024-03-16T08:00:33.612Z,11.50
2024-03-16T08:03:01.726Z,11.52
2024-03-16T08:05:29.556Z,11.49
2024-03-16T08:07:56.249Z,11.60
2024-03-16T08:10:23.775Z,11.48
2024-03-16T08:12:50.606Z,11.36
2024-03-16T08:15:18.917Z,11.44
2024-03-16T08:17:46.137Z,11.63
2024-03-16T08:20:16.393Z,11.71
2024-03-16T08:22:45.026Z,11.47
2024-03-16T08:25:11.967Z,11.37
2024-03-16T08:27:39.048Z,11.36
2024-03-16T08:30:06.575Z,11.61
2024-03-16T08:32:34.158Z,11.81
2024-03-16T08:35:00.999Z,11.70
2024-03-16T08:37:27.772Z,11.76
2024-03-16T08:39:54.734Z,11.96
2024-03-16T08:42:21.673Z,12.04
2024-03-16T08:44:48.661Z,12.34
2024-03-16T08:47:15.507Z,12.62
2024-03-16T08:49:42.271Z,13.01
2024-03-16T08:52:09.206Z,12.71
2024-03-16T08:54:36.712Z,13.02
2024-03-16T08:57:05.282Z,12.42
2024-03-16T08:59:32.587Z,12.48
2024-03-16T09:02:00.642Z,12.76
2024-03-16T09:04:27.713Z,12.65
2024-03-16T09:06:54.673Z,12.09
2024-03-16T09:09:22.974Z,12.34
2024-03-16T09:11:50.299Z,12.47
2024-03-16T09:14:17.179Z,12.54
2024-03-16T09:16:44.503Z,12.21
2024-03-16T09:19:12.269Z,12.70
2024-03-16T09:21:39.505Z,13.04
2024-03-16T09:24:07.824Z,13.42
2024-03-16T09:26:35.639Z,13.63
2024-03-16T09:29:02.434Z,13.50
2024-03-16T09:31:29.299Z,13.52
2024-03-16T09:33:56.245Z,13.68
2024-03-16T09:36:23.078Z,13.68
2024-03-16T09:38:50.011Z,13.86
2024-03-16T09:41:21.272Z,13.59
